Time;durP1;ratioP1;P1;durP2;ratioP2;P2;SDS_P1;SDS_P2;PMS_P1;PMS_P2;Temp;Humidity;BMP_temperature;BMP_pressure;BME280_temperature;BME280_humidity;BME280_pressure;Samples;Min_cycle;Max_cycle;Signal;HPM_P1;HPM_P2
2023/04/10 00:01:18;;;;;;;58.33;37.33;;;6.10;99.90;;;;;;5015727;28;20132;-82
2023/04/10 00:03:44;;;;;;;55.33;36.97;;;6.10;99.90;;;;;;5016909;28;20053;-82
2023/04/10 00:06:10;;;;;;;57.00;36.90;;;6.00;99.90;;;;;;5033267;28;20045;-82
2023/04/10 00:08:35;;;;;;;57.97;38.00;;;6.00;99.90;;;;;;5016793;28;20128;-83
2023/04/10 00:11:02;;;;;;;57.60;39.03;;;6.00;99.90;;;;;;5043493;28;20110;-82
2023/04/10 00:13:28;;;;;;;58.13;39.33;;;6.00;99.90;;;;;;5048488;28;20056;-82
2023/04/10 00:15:54;;;;;;;56.57;39.17;;;6.00;99.90;;;;;;5051447;28;20539;-82
2023/04/10 00:18:19;;;;;;;58.53;40.37;;;5.90;99.90;;;;;;5016662;28;20049;-82
2023/04/10 00:20:45;;;;;;;62.53;41.23;;;5.90;99.90;;;;;;5033686;28;20076;-82
2023/04/10 00:23:11;;;;;;;59.87;39.97;;;5.90;99.90;;;;;;5033690;28;20069;-82
2023/04/10 00:25:36;;;;;;;60.93;40.13;;;5.90;99.90;;;;;;5016470;28;20056;-82
2023/04/10 00:28:02;;;;;;;60.17;39.10;;;5.90;99.90;;;;;;5015178;28;20474;-82
2023/04/10 00:30:27;;;;;;;62.17;40.93;;;5.90;99.90;;;;;;5033799;28;20107;-82
2023/04/10 00:32:53;;;;;;;64.57;40.63;;;5.90;99.90;;;;;;5016153;28;20041;-82
2023/04/10 00:35:19;;;;;;;63.10;40.70;;;5.80;99.90;;;;;;5033098;28;20067;-82
2023/04/10 00:37:44;;;;;;;65.23;42.63;;;5.80;99.90;;;;;;5033855;28;20045;-82
2023/04/10 00:40:11;;;;;;;64.80;41.77;;;5.80;99.90;;;;;;5033240;28;20525;-82
2023/04/10 00:42:36;;;;;;;61.37;40.63;;;5.80;99.90;;;;;;5033156;28;20044;-82
2023/04/10 00:45:02;;;;;;;61.07;40.87;;;5.80;99.90;;;;;;5033523;28;20045;-82
2023/04/10 00:47:28;;;;;;;62.40;41.10;;;5.70;99.90;;;;;;5016114;28;20105;-82
2023/04/10 00:49:54;;;;;;;62.80;42.53;;;5.70;99.90;;;;;;5014884;28;20050;-82
2023/04/10 00:52:20;;;;;;;67.77;42.47;;;5.70;99.90;;;;;;5015759;28;20043;-82
2023/04/10 00:54:46;;;;;;;61.50;41.27;;;5.70;99.90;;;;;;5015833;28;20397;-82
2023/04/10 00:57:11;;;;;;;62.03;41.20;;;5.60;99.90;;;;;;5032573;28;20117;-82
2023/04/10 00:59:37;;;;;;;63.00;41.67;;;5.90;99.90;;;;;;5033211;28;20092;-82
2023/04/10 01:02:03;;;;;;;64.10;41.33;;;5.60;99.90;;;;;;5015550;28;20132;-82
2023/04/10 01:04:31;;;;;;;60.40;42.23;;;6.40;99.90;;;;;;5014926;28;20046;-82
2023/04/10 01:07:27;;;;;;;67.07;41.33;;;5.50;99.90;;;;;;5048240;28;20104;-82
2023/04/10 01:10:02;;;;;;;61.87;41.27;;;5.50;99.90;;;;;;5031804;28;20061;-82
2023/04/10 01:12:42;;;;;;;61.33;41.17;;;5.50;99.90;;;;;;5015486;28;20505;-82
2023/04/10 01:15:15;;;;;;;62.10;41.00;;;5.40;99.90;;;;;;5015261;28;20049;-82
2023/04/10 01:18:13;;;;;;;62.17;41.67;;;5.40;99.90;;;;;;5014668;28;20045;-82
2023/04/10 01:20:40;;;;;;;63.70;41.40;;;5.40;99.90;;;;;;5048378;28;20098;-82
2023/04/10 01:23:41;;;;;;;64.80;40.70;;;5.40;99.90;;;;;;5015000;28;20176;-82
2023/04/10 01:26:12;;;;;;;64.30;40.63;;;5.40;99.90;;;;;;5014369;28;20045;-82
2023/04/10 01:28:56;;;;;;;67.63;41.70;;;5.30;99.90;;;;;;5014980;28;20096;-82
2023/04/10 01:31:30;;;;;;;62.65;39.65;;;5.40;99.90;;;;;;5014536;28;20056;-82
2023/04/10 01:34:06;;;;;;;63.37;41.17;;;5.30;99.90;;;;;;5015114;28;20091;-82
2023/04/10 01:36:39;;;;;;;64.87;41.57;;;5.30;99.90;;;;;;5033097;28;20038;-82
2023/04/10 01:39:05;;;;;;;62.43;40.23;;;5.30;99.90;;;;;;5031958;28;20072;-82
2023/04/10 01:41:33;;;;;;;65.50;42.23;;;5.30;99.90;;;;;;5032940;28;20111;-82
2023/04/10 01:44:02;;;;;;;58.47;39.43;;;5.30;99.90;;;;;;5014779;28;20077;-82
2023/04/10 01:46:29;;;;;;;62.73;40.00;;;5.30;99.90;;;;;;5047343;28;20041;-82
2023/04/10 01:48:55;;;;;;;59.93;39.50;;;5.20;99.90;;;;;;5047702;28;20132;-82
2023/04/10 01:51:21;;;;;;;62.23;39.07;;;5.20;99.90;;;;;;5014982;28;20042;-82
2023/04/10 01:53:47;;;;;;;55.80;37.53;;;5.20;99.90;;;;;;5014138;28;20064;-82
2023/04/10 01:56:15;;;;;;;60.70;40.27;;;5.20;99.90;;;;;;5032251;28;20030;-82
2023/04/10 01:58:41;;;;;;;58.87;40.30;;;5.20;99.90;;;;;;5014487;28;20443;-82
2023/04/10 02:01:07;;;;;;;60.13;38.67;;;5.20;99.90;;;;;;5030637;28;20103;-82
2023/04/10 02:03:32;;;;;;;59.53;39.43;;;5.20;99.90;;;;;;5031207;28;20490;-82
2023/04/10 02:06:20;;;;;;;58.47;38.47;;;5.20;99.90;;;;;;5031210;28;20113;-82
2023/04/10 02:08:55;;;;;;;59.17;38.13;;;5.20;99.90;;;;;;5030204;28;20053;-82
2023/04/10 02:11:40;;;;;;;58.07;38.53;;;5.10;99.90;;;;;;5031926;28;20493;-82
2023/04/10 02:14:10;;;;;;;58.57;37.40;;;5.00;99.90;;;;;;5063206;28;20397;-82
2023/04/10 02:16:37;;;;;;;58.03;37.33;;;5.00;99.90;;;;;;5032379;28;20049;-82
2023/04/10 02:19:04;;;;;;;52.10;35.90;;;5.10;99.90;;;;;;5032207;28;20042;-82
2023/04/10 02:21:32;;;;;;;54.90;35.90;;;5.10;99.90;;;;;;5047222;28;20136;-82
2023/04/10 02:23:59;;;;;;;55.90;36.20;;;5.10;99.90;;;;;;5032372;28;20121;-82
2023/04/10 02:26:24;;;;;;;57.20;36.70;;;5.10;99.90;;;;;;5030933;28;20088;-82
2023/04/10 02:28:50;;;;;;;55.97;36.33;;;5.10;99.90;;;;;;5031510;28;20076;-82
2023/04/10 02:31:16;;;;;;;54.70;36.07;;;5.10;99.90;;;;;;5030828;28;20041;-82
2023/04/10 02:33:42;;;;;;;60.67;35.67;;;5.10;99.90;;;;;;5032560;28;20489;-83
2023/04/10 02:36:08;;;;;;;53.93;35.50;;;5.10;99.90;;;;;;5013692;28;20507;-82
2023/04/10 02:38:34;;;;;;;58.70;36.20;;;5.10;99.90;;;;;;5034634;28;20041;-82
2023/04/10 02:40:59;;;;;;;51.27;34.97;;;5.10;99.90;;;;;;5017034;28;20449;-82
2023/04/10 02:43:25;;;;;;;55.03;35.33;;;5.10;99.90;;;;;;5036052;28;20037;-82
2023/04/10 02:45:51;;;;;;;55.30;35.63;;;5.10;99.90;;;;;;5034865;28;20038;-82
2023/04/10 02:48:17;;;;;;;55.37;35.70;;;5.10;99.90;;;;;;5034883;28;20073;-82
2023/04/10 02:50:45;;;;;;;53.30;35.30;;;5.10;99.90;;;;;;5035870;28;20069;-82
2023/04/10 02:53:13;;;;;;;54.10;34.70;;;5.00;99.90;;;;;;5034317;28;20056;-82
2023/04/10 02:55:39;;;;;;;51.77;34.23;;;5.10;99.90;;;;;;5034767;28;20529;-82
2023/04/10 02:58:04;;;;;;;54.57;35.77;;;5.10;99.90;;;;;;5035636;28;20132;-82
2023/04/10 03:00:30;;;;;;;54.53;34.83;;;5.10;99.90;;;;;;5034493;28;20061;-82
2023/04/10 03:02:55;;;;;;;54.47;35.33;;;5.10;99.90;;;;;;5037735;28;20038;-82
2023/04/10 03:05:21;;;;;;;55.10;35.63;;;5.10;99.90;;;;;;5060265;28;20076;-82
2023/04/10 03:07:47;;;;;;;54.27;35.17;;;5.00;99.90;;;;;;5044397;28;20077;-82
2023/04/10 03:10:12;;;;;;;54.70;36.07;;;5.10;99.90;;;;;;5018887;28;20057;-81
2023/04/10 03:12:38;;;;;;;57.17;37.40;;;5.00;99.90;;;;;;5035499;28;20037;-82
2023/04/10 03:15:04;;;;;;;57.17;36.40;;;5.10;99.90;;;;;;5035216;28;20080;-82
2023/04/10 03:17:30;;;;;;;58.33;36.27;;;5.10;99.90;;;;;;5049740;28;20042;-82
2023/04/10 03:19:56;;;;;;;55.83;36.80;;;5.10;99.90;;;;;;5034917;28;20132;-82
2023/04/10 03:22:21;;;;;;;60.07;38.60;;;6.40;99.90;;;;;;5033886;28;20045;-82
2023/04/10 03:24:47;;;;;;;58.57;37.40;;;5.20;99.90;;;;;;5034360;28;20044;-82
2023/04/10 03:27:13;;;;;;;60.03;38.67;;;5.20;99.90;;;;;;5035068;28;20120;-83
2023/04/10 03:29:38;;;;;;;60.70;38.97;;;5.20;99.90;;;;;;5017195;28;20516;-82
2023/04/10 03:32:04;;;;;;;58.60;38.17;;;5.30;99.90;;;;;;5032943;28;20445;-83
2023/04/10 03:34:30;;;;;;;62.47;39.80;;;5.30;99.90;;;;;;5035339;28;20144;-82
2023/04/10 03:36:56;;;;;;;62.80;39.60;;;5.40;99.90;;;;;;5034488;28;20148;-82
2023/04/10 03:39:22;;;;;;;61.37;39.13;;;5.40;99.90;;;;;;5016271;28;20049;-82
2023/04/10 03:41:48;;;;;;;62.83;40.17;;;5.40;99.90;;;;;;5033453;28;20511;-82
2023/04/10 03:44:13;;;;;;;63.27;41.17;;;5.50;99.90;;;;;;5032220;28;20049;-82
2023/04/10 03:46:39;;;;;;;62.63;39.77;;;5.50;99.90;;;;;;5033481;28;20038;-82
2023/04/10 03:49:05;;;;;;;68.17;41.30;;;5.50;99.90;;;;;;5033833;28;20049;-82
2023/04/10 03:51:30;;;;;;;64.60;41.13;;;5.50;99.90;;;;;;5032514;28;20046;-82
2023/04/10 03:53:56;;;;;;;68.47;41.53;;;5.50;99.90;;;;;;5034564;28;20091;-82
2023/04/10 03:56:21;;;;;;;67.20;42.97;;;5.50;99.90;;;;;;5033028;28;20549;-82
2023/04/10 03:58:47;;;;;;;64.47;41.43;;;5.50;99.90;;;;;;5032288;28;20096;-82
2023/04/10 04:01:13;;;;;;;69.43;43.87;;;5.50;99.90;;;;;;5033938;28;20041;-82
2023/04/10 04:03:38;;;;;;;66.20;43.27;;;5.50;99.90;;;;;;5033159;28;20120;-82
2023/04/10 04:06:04;;;;;;;69.13;43.70;;;5.40;99.90;;;;;;5064603;28;20443;-82
2023/04/10 04:08:30;;;;;;;69.47;43.90;;;5.40;99.90;;;;;;5033842;28;20516;-83
2023/04/10 04:10:55;;;;;;;72.43;46.03;;;5.40;99.90;;;;;;5033396;28;20052;-83
2023/04/10 04:13:21;;;;;;;69.80;44.53;;;5.40;99.90;;;;;;5032573;28;20149;-82
2023/04/10 04:15:46;;;;;;;67.60;44.17;;;5.30;99.90;;;;;;5032901;28;20378;-82
2023/04/10 04:18:12;;;;;;;72.83;46.07;;;5.30;99.90;;;;;;5032780;28;20374;-82
2023/04/10 04:20:38;;;;;;;70.23;44.93;;;5.30;99.90;;;;;;5032072;28;20045;-82
2023/04/10 04:23:03;;;;;;;73.37;45.17;;;5.20;99.90;;;;;;5032351;28;20037;-82
2023/04/10 04:25:29;;;;;;;73.43;45.80;;;5.20;99.90;;;;;;5065681;28;20064;-82
2023/04/10 04:27:55;;;;;;;75.33;46.93;;;5.20;99.90;;;;;;5033083;28;20389;-82
2023/04/10 04:30:20;;;;;;;72.63;45.03;;;5.20;99.90;;;;;;5034020;28;20049;-82
2023/04/10 04:32:46;;;;;;;73.90;46.00;;;5.10;99.90;;;;;;5033864;28;20034;-82
2023/04/10 04:35:11;;;;;;;74.80;46.80;;;5.10;99.90;;;;;;5031709;28;20493;-82
2023/04/10 04:37:37;;;;;;;71.90;46.17;;;5.10;99.90;;;;;;5032153;28;20037;-82
2023/04/10 04:40:03;;;;;;;73.43;45.70;;;5.20;99.90;;;;;;5032287;28;20379;-83
2023/04/10 04:42:28;;;;;;;71.57;45.03;;;5.20;99.90;;;;;;5033311;28;20046;-82
2023/04/10 04:44:54;;;;;;;74.20;46.20;;;5.20;99.90;;;;;;5032554;28;20037;-82
2023/04/10 04:47:20;;;;;;;69.20;44.97;;;5.10;99.90;;;;;;5032142;28;20045;-82
2023/04/10 04:49:45;;;;;;;72.73;45.77;;;5.10;99.90;;;;;;5031262;28;20052;-83
2023/04/10 04:52:11;;;;;;;70.30;44.63;;;5.10;99.90;;;;;;5033394;28;20082;-82
2023/04/10 04:54:36;;;;;;;75.43;47.50;;;5.20;99.90;;;;;;5064511;28;20477;-82
2023/04/10 04:57:02;;;;;;;71.40;45.13;;;5.20;99.90;;;;;;5065035;28;20128;-82
2023/04/10 04:59:27;;;;;;;76.50;45.87;;;5.20;99.90;;;;;;5031569;28;20056;-83
2023/04/10 05:01:53;;;;;;;70.17;45.57;;;5.20;99.90;;;;;;5031212;28;20041;-82
2023/04/10 05:04:19;;;;;;;77.37;47.43;;;5.30;99.90;;;;;;5031939;28;20045;-82
2023/04/10 05:06:45;;;;;;;71.03;44.13;;;5.30;99.90;;;;;;5033210;28;20044;-82
2023/04/10 05:09:11;;;;;;;71.27;45.13;;;5.30;99.90;;;;;;5031625;28;20421;-82
2023/04/10 05:11:36;;;;;;;69.90;44.53;;;5.30;99.90;;;;;;5031673;28;20412;-82
2023/04/10 05:14:02;;;;;;;71.10;46.30;;;5.40;99.90;;;;;;5033129;28;20033;-82
2023/04/10 05:16:27;;;;;;;72.33;45.70;;;5.40;99.90;;;;;;5031011;28;20115;-82
2023/04/10 05:18:54;;;;;;;69.87;44.80;;;5.40;99.90;;;;;;5033019;28;20049;-82
2023/04/10 05:21:19;;;;;;;71.40;44.60;;;5.40;99.90;;;;;;5031660;28;20049;-82
2023/04/10 05:23:45;;;;;;;73.57;46.30;;;5.40;99.90;;;;;;5030750;28;20045;-82
2023/04/10 05:26:11;;;;;;;69.97;43.83;;;5.40;99.90;;;;;;5032506;28;20048;-82
2023/04/10 05:28:36;;;;;;;70.77;44.27;;;5.50;99.90;;;;;;5031422;28;20046;-82
2023/04/10 05:31:02;;;;;;;69.63;43.70;;;5.50;99.90;;;;;;5032035;28;20470;-82
2023/04/10 05:33:27;;;;;;;68.40;42.90;;;5.50;99.90;;;;;;5031516;28;20079;-82
2023/04/10 05:35:53;;;;;;;69.13;43.77;;;5.50;99.90;;;;;;5033182;28;20076;-82
2023/04/10 05:38:19;;;;;;;69.77;44.57;;;5.60;99.90;;;;;;5031823;28;20562;-82
2023/04/10 05:40:45;;;;;;;67.53;43.53;;;5.60;99.90;;;;;;5031418;28;20045;-82
2023/04/10 05:45:36;;;;;;;67.47;43.93;;;5.70;99.90;;;;;;5056072;22;20556;-83
2023/04/10 05:48:01;;;;;;;69.63;43.97;;;5.80;99.90;;;;;;5034156;28;20106;-82
2023/04/10 05:50:27;;;;;;;71.83;43.53;;;6.90;99.90;;;;;;5034728;28;20049;-82
2023/04/10 05:52:57;;;;;;;64.80;41.27;;;5.90;99.90;;;;;;5056507;28;20117;-86
2023/04/10 06:07:32;;;;;;;66.53;42.20;;;5.60;99.90;;;;;;4955820;29;20049;-95
2023/04/10 06:13:47;;;;;;;61.00;39.47;;;6.10;99.90;;;;;;5011046;28;20060;-87
2023/04/10 06:16:14;;;;;;;62.10;40.33;;;6.60;99.90;;;;;;5019082;28;20137;-88
2023/04/10 06:18:40;;;;;;;61.37;39.43;;;6.70;99.90;;;;;;5037389;28;20087;-87
2023/04/10 06:21:06;;;;;;;60.60;40.13;;;6.70;99.90;;;;;;5036726;28;20045;-87
2023/04/10 06:23:31;;;;;;;61.63;38.83;;;6.80;99.90;;;;;;5036685;28;20045;-87
2023/04/10 06:25:57;;;;;;;59.43;38.03;;;6.90;99.90;;;;;;5035303;28;20439;-91
2023/04/10 06:28:25;;;;;;;59.23;38.13;;;7.00;99.90;;;;;;5069984;28;20096;-88
2023/04/10 06:30:57;;;;;;;57.80;37.50;;;8.20;99.90;;;;;;5036921;28;20091;-88
2023/04/10 06:33:23;;;;;;;56.63;37.13;;;7.20;99.90;;;;;;5025911;28;20030;-88
2023/04/10 06:35:50;;;;;;;55.50;36.63;;;8.70;99.90;;;;;;5033344;28;20068;-90
2023/04/10 06:38:36;;;;;;;53.73;35.77;;;7.50;99.90;;;;;;5036837;28;20050;-88
2023/04/10 06:41:17;;;;;;;50.67;35.47;;;7.70;99.90;;;;;;5036506;28;20155;-89
2023/04/10 06:43:58;;;;;;;51.73;34.27;;;7.60;99.90;;;;;;5028466;28;20049;-89
2023/04/10 06:46:26;;;;;;;51.77;33.93;;;8.70;99.90;;;;;;5036116;28;20042;-88
2023/04/10 06:49:10;;;;;;;57.77;34.30;;;9.20;99.90;;;;;;5036288;28;20091;-89
2023/04/10 06:51:41;;;;;;;51.70;32.90;;;8.90;99.90;;;;;;5038163;28;20045;-89
2023/04/10 06:57:49;;;;;;;48.47;31.97;;;8.90;99.90;;;;;;5069358;28;20413;-90
2023/04/10 07:03:55;;;;;;;48.28;31.10;;;8.30;99.90;;;;;;5043010;28;20091;-89
2023/04/10 07:06:23;;;;;;;49.45;30.88;;;9.60;99.90;;;;;;5044898;28;20057;-89
2023/04/10 07:09:02;;;;;;;47.22;31.58;;;10.10;99.90;;;;;;5048027;28;20049;-89
2023/04/10 07:11:27;;;;;;;46.25;30.38;;;9.30;99.90;;;;;;5054126;28;20045;-90
2023/04/10 07:13:59;;;;;;;45.00;29.13;;;10.40;99.90;;;;;;5031993;28;20040;-89
2023/04/10 07:16:31;;;;;;;46.20;30.48;;;8.90;99.90;;;;;;5042744;28;20063;-90
2023/04/10 07:19:12;;;;;;;46.07;29.57;;;9.20;99.90;;;;;;5041373;28;20378;-90
2023/04/10 07:21:41;;;;;;;44.97;29.85;;;9.60;99.90;;;;;;5052177;22;20057;-88
2023/04/10 07:24:10;;;;;;;41.80;27.80;;;9.40;99.90;;;;;;5042220;22;20404;-89
2023/04/10 07:26:43;;;;;;;41.80;28.55;;;9.40;99.90;;;;;;5031089;28;20041;-89
2023/04/10 07:29:19;;;;;;;42.45;28.95;;;10.10;99.90;;;;;;5024819;28;20134;-89
2023/04/10 07:31:48;;;;;;;39.70;27.77;;;8.90;99.90;;;;;;5019818;28;20045;-89
2023/04/10 07:34:14;;;;;;;39.97;27.27;;;9.50;99.90;;;;;;5018204;28;20052;-90
2023/04/10 07:36:39;;;;;;;37.25;25.23;;;9.50;99.90;;;;;;5018540;28;20046;-89
2023/04/10 07:39:11;;;;;;;39.80;26.10;;;11.00;99.90;;;;;;5038964;28;20041;-89
2023/04/10 07:41:42;;;;;;;37.97;24.65;;;9.80;99.90;;;;;;5037202;28;20121;-89
2023/04/10 07:44:12;;;;;;;36.28;24.05;;;9.80;99.90;;;;;;5015842;28;20049;-90
2023/04/10 07:46:38;;;;;;;35.83;24.13;;;11.30;99.90;;;;;;5017176;28;20049;-89
2023/04/10 07:49:16;;;;;;;37.65;24.58;;;10.80;99.90;;;;;;5011676;28;20543;-89
2023/04/10 07:51:53;;;;;;;36.15;22.88;;;11.10;99.90;;;;;;4996269;28;20123;-89
2023/04/10 07:54:24;;;;;;;36.88;23.95;;;10.50;99.90;;;;;;5008964;28;20044;-88
2023/04/10 07:57:11;;;;;;;35.67;23.23;;;11.70;99.90;;;;;;5033553;28;20041;-88
2023/04/10 07:59:48;;;;;;;33.67;21.50;;;11.40;99.90;;;;;;5047380;28;20050;-88
2023/04/10 08:02:39;;;;;;;34.92;22.60;;;10.90;99.90;;;;;;5016833;28;20462;-93
2023/04/10 08:52:30;;;;;;;29.90;19.85;;;13.10;99.90;;;;;;5014907;28;20054;-91
2023/04/10 08:55:08;;;;;;;28.65;20.20;;;13.50;99.90;;;;;;5019117;28;20392;-92
2023/04/10 08:57:55;;;;;;;26.27;17.83;;;13.00;99.90;;;;;;5023048;28;20042;-93
2023/04/10 09:00:33;;;;;;;27.58;18.65;;;13.90;99.90;;;;;;4999636;28;20398;-94
2023/04/10 09:11:05;;;;;;;27.02;17.67;;;13.10;99.90;;;;;;4889624;29;20516;-90
2023/04/10 09:17:30;;;;;;;24.23;16.30;;;13.20;99.90;;;;;;4904771;29;20520;-88
2023/04/10 09:20:40;;;;;;;23.33;15.52;;;13.80;99.90;;;;;;4957145;29;20066;-89
2023/04/10 09:27:08;;;;;;;26.02;15.70;;;13.00;99.90;;;;;;4960715;29;20073;-91
2023/04/10 09:33:29;;;;;;;23.85;15.60;;;14.00;99.90;;;;;;4851961;29;20045;-91
2023/04/10 09:38:31;;;;;;;24.05;15.07;;;14.20;99.90;;;;;;5121270;22;20451;-89
2023/04/10 09:41:07;;;;;;;22.38;15.23;;;14.90;99.90;;;;;;5026171;28;20049;-89
2023/04/10 09:43:32;;;;;;;22.63;15.05;;;14.40;99.90;;;;;;5043626;28;20045;-88
2023/04/10 09:45:58;;;;;;;21.88;14.57;;;14.40;99.90;;;;;;5025127;28;20106;-88
2023/04/10 09:48:34;;;;;;;21.52;14.02;;;15.70;99.90;;;;;;5023428;28;20485;-88
2023/04/10 09:53:56;;;;;;;19.15;12.52;;;14.60;99.90;;;;;;5132921;22;20057;-89
2023/04/10 09:56:37;;;;;;;19.48;12.35;;;14.40;99.90;;;;;;5063207;28;20033;-89
2023/04/10 09:59:45;;;;;;;18.67;11.20;;;14.90;99.90;;;;;;5041633;28;20036;-90
2023/04/10 10:05:57;;;;;;;16.20;10.52;;;14.80;99.90;;;;;;5059768;28;20040;-91
2023/04/10 10:08:26;;;;;;;17.20;10.82;;;14.80;99.90;;;;;;5035181;28;20036;-90
2023/04/10 10:11:18;;;;;;;15.35;9.98;;;14.80;99.90;;;;;;5037883;28;20127;-89
2023/04/10 10:13:53;;;;;;;18.98;10.43;;;14.90;99.90;;;;;;5060383;22;20041;-88
2023/04/10 10:17:09;;;;;;;15.23;9.85;;;15.00;99.40;;;;;;5054355;28;20071;-88
2023/04/10 10:20:21;;;;;;;16.17;9.32;;;14.50;98.90;;;;;;5032509;28;20053;-88
2023/04/10 10:22:53;;;;;;;15.73;9.20;;;15.50;99.70;;;;;;4978756;28;20137;-87
2023/04/10 10:25:36;;;;;;;15.55;9.65;;;16.70;99.20;;;;;;4971171;28;20085;-88
2023/04/10 10:28:05;;;;;;;17.92;9.57;;;16.10;99.40;;;;;;4960931;28;20454;-87
2023/04/10 10:30:57;;;;;;;15.23;8.90;;;16.20;99.90;;;;;;4967699;28;20055;-87
2023/04/10 10:34:04;;;;;;;14.57;9.32;;;15.70;98.70;;;;;;4962513;28;20050;-88
2023/04/10 10:36:54;;;;;;;16.67;9.13;;;15.20;99.30;;;;;;4932333;29;20052;-88
2023/04/10 10:39:56;;;;;;;15.45;9.35;;;15.80;99.50;;;;;;4914548;29;20048;-88
2023/04/10 10:42:52;;;;;;;13.93;9.10;;;16.00;97.80;;;;;;4915484;29;20052;-87
2023/04/10 10:45:24;;;;;;;14.25;8.20;;;16.20;99.50;;;;;;4973647;28;20054;-86
2023/04/10 10:47:56;;;;;;;14.98;8.10;;;17.40;98.60;;;;;;5020520;28;20076;-88
2023/04/10 10:50:22;;;;;;;12.88;7.47;;;16.70;98.50;;;;;;5035088;28;20048;-87
2023/04/10 10:53:52;;;;;;;13.05;7.97;;;16.30;99.90;;;;;;5035511;28;20033;-88
2023/04/10 10:57:08;;;;;;;;;;;;;;;;;;;;;
2023/04/10 11:13:20;;;;;;;12.82;7.10;;;16.50;98.00;;;;;;4995728;28;20053;-87
2023/04/10 11:19:58;;;;;;;11.80;6.60;;;15.80;97.40;;;;;;4972127;28;20043;-90
2023/04/10 12:25:38;;;;;;;9.18;4.78;;;17.50;97.60;;;;;;4987572;28;20054;-84
2023/04/10 12:28:04;;;;;;;8.88;4.47;;;17.60;97.20;;;;;;4999113;28;20136;-84
2023/04/10 12:58:57;;;;;;;9.50;4.40;;;18.60;95.60;;;;;;5010161;28;20036;-89
2023/04/10 13:17:42;;;;;;;10.82;5.10;;;17.40;95.70;;;;;;5101900;22;20029;31
2023/04/10 13:20:18;;;;;;;9.27;4.40;;;17.40;96.20;;;;;;4929005;29;20055;-87
2023/04/10 13:22:53;;;;;;;9.18;3.90;;;16.80;96.40;;;;;;4917230;29;20051;-88
2023/04/10 13:27:54;;;;;;;12.10;5.15;;;17.20;96.90;;;;;;5101462;22;20089;-90
2023/04/10 13:30:41;;;;;;;9.68;4.10;;;17.10;97.30;;;;;;4993932;28;20050;-86
2023/04/10 13:33:24;;;;;;;9.13;4.13;;;17.10;97.30;;;;;;5011303;28;20038;-91
2023/04/10 13:36:33;;;;;;;9.95;4.57;;;17.00;96.90;;;;;;5000308;28;20098;-90
2023/04/10 14:00:15;;;;;;;9.23;3.80;;;16.70;96.80;;;;;;5032608;22;20580;-91
2023/04/10 14:12:26;;;;;;;;;;;;;;;;;;;;;
2023/04/10 14:26:39;;;;;;;8.93;4.00;;;17.00;97.60;;;;;;4915504;29;20167;-89
2023/04/10 14:29:31;;;;;;;9.82;4.18;;;16.10;97.30;;;;;;4916877;29;20146;-88
2023/04/10 14:32:17;;;;;;;10.25;4.00;;;16.70;98.40;;;;;;4916570;29;20520;-88
2023/04/10 14:53:59;;;;;;;8.38;3.80;;;15.90;97.20;;;;;;4980879;28;20526;-89
2023/04/10 14:57:22;;;;;;;9.05;3.47;;;15.80;98.20;;;;;;5635479;22;20523;-90
2023/04/10 15:00:24;;;;;;;7.80;3.63;;;15.80;97.30;;;;;;4992188;28;20061;-89
2023/04/10 15:20:23;;;;;;;9.93;3.47;;;14.90;97.80;;;;;;5024172;28;20105;-89
2023/04/10 16:23:03;;;;;;;8.55;3.42;;;15.20;97.40;;;;;;4992262;28;20152;-91
2023/04/10 16:26:24;;;;;;;8.27;3.55;;;15.10;98.90;;;;;;4978174;28;20092;-90
2023/04/10 16:29:33;;;;;;;8.45;3.22;;;15.00;99.30;;;;;;4943756;28;20167;-88
2023/04/10 16:32:32;;;;;;;7.68;3.40;;;14.30;99.20;;;;;;4934195;29;20067;-90
2023/04/10 16:44:13;;;;;;;8.82;3.95;;;14.40;99.90;;;;;;4952527;29;20053;-87
2023/04/10 16:46:58;;;;;;;9.63;4.03;;;14.30;99.90;;;;;;4943430;28;20058;-86
2023/04/10 16:50:05;;;;;;;8.50;3.80;;;14.20;99.90;;;;;;4917513;29;20050;-86
2023/04/10 16:52:48;;;;;;;9.73;3.97;;;14.10;99.90;;;;;;4970731;28;20513;-87
2023/04/10 16:55:38;;;;;;;10.40;4.50;;;14.70;99.90;;;;;;4998777;28;20207;-86
2023/04/10 16:58:04;;;;;;;10.45;4.40;;;13.80;99.90;;;;;;4993210;28;20050;-86
2023/04/10 17:00:50;;;;;;;8.98;3.88;;;14.90;99.90;;;;;;4990895;28;20042;-87
2023/04/10 17:03:35;;;;;;;8.68;3.80;;;13.70;99.90;;;;;;4988711;28;20137;-87
2023/04/10 17:06:52;;;;;;;10.00;4.30;;;13.60;99.90;;;;;;5017315;23;20065;-86
2023/04/10 17:09:43;;;;;;;10.15;4.15;;;13.20;99.90;;;;;;4971762;28;20165;-87
2023/04/10 17:12:30;;;;;;;9.70;4.57;;;13.40;99.90;;;;;;4988459;28;20513;-86
2023/04/10 17:15:34;;;;;;;11.02;4.78;;;13.70;99.90;;;;;;4990916;23;20050;-86
2023/04/10 17:18:18;;;;;;;10.07;5.03;;;12.40;99.90;;;;;;4942892;28;20047;-86
2023/04/10 17:21:01;;;;;;;10.93;5.43;;;13.00;99.90;;;;;;4970471;28;20053;-87
2023/04/10 17:23:42;;;;;;;10.83;5.97;;;13.30;99.90;;;;;;4970890;28;20039;-86
2023/04/10 17:26:27;;;;;;;11.63;5.85;;;12.30;99.90;;;;;;4953187;28;20047;-86
2023/04/10 17:29:06;;;;;;;11.80;6.28;;;12.10;99.90;;;;;;4968703;28;20062;-85
2023/04/10 17:34:25;;;;;;;10.93;5.95;;;11.10;99.90;;;;;;5018474;22;19976;-86
2023/04/10 17:37:09;;;;;;;12.65;6.00;;;11.70;99.90;;;;;;5011859;28;20089;-85
2023/04/10 17:39:35;;;;;;;13.13;6.78;;;12.80;99.90;;;;;;4993382;28;20045;-85
2023/04/10 17:42:24;;;;;;;12.45;6.82;;;13.00;99.90;;;;;;4992501;28;20100;-86
2023/04/10 17:44:50;;;;;;;12.32;6.82;;;11.60;99.90;;;;;;4940080;28;20052;-86
2023/04/10 17:51:21;;;;;;;11.98;6.25;;;11.50;99.90;;;;;;4916759;29;20071;-85
2023/04/10 17:53:47;;;;;;;11.30;5.85;;;10.80;99.90;;;;;;4929585;29;20098;-83
2023/04/10 17:56:37;;;;;;;11.30;6.18;;;10.60;99.90;;;;;;4944742;28;20064;-84
2023/04/10 18:08:05;;;;;;;10.70;5.97;;;11.30;99.90;;;;;;5014184;28;20045;-84
2023/04/10 18:10:30;;;;;;;12.40;5.75;;;11.30;99.90;;;;;;5014488;28;20575;-84
2023/04/10 18:12:57;;;;;;;12.32;5.80;;;10.70;99.90;;;;;;5541883;23;20057;-84
2023/04/10 18:19:28;;;;;;;11.77;5.45;;;10.60;99.90;;;;;;4981408;28;20088;-85
2023/04/10 18:21:54;;;;;;;12.20;6.13;;;11.10;99.90;;;;;;4976963;28;20042;-85
2023/04/10 18:24:20;;;;;;;15.30;7.45;;;11.00;99.90;;;;;;4976716;28;20121;-84
2023/04/10 18:27:34;;;;;;;16.17;7.85;;;11.80;99.90;;;;;;4976019;28;20050;-85
2023/04/10 18:30:11;;;;;;;16.55;7.68;;;11.00;99.90;;;;;;4959214;28;20089;-84
2023/04/10 18:33:13;;;;;;;12.57;6.05;;;10.90;99.90;;;;;;4975613;28;20061;-86
2023/04/10 18:35:57;;;;;;;12.20;5.93;;;10.50;99.90;;;;;;5018798;22;20239;-86
2023/04/10 18:38:44;;;;;;;12.68;5.95;;;12.20;99.90;;;;;;5029365;28;20044;-86
2023/04/10 18:41:25;;;;;;;12.75;5.60;;;10.50;99.90;;;;;;5015257;28;20440;-87
2023/04/10 18:44:15;;;;;;;11.00;5.97;;;10.80;99.90;;;;;;5014315;28;20049;-87
2023/04/10 18:46:43;;;;;;;12.43;6.35;;;10.10;99.90;;;;;;4997625;28;20056;-85
2023/04/10 18:49:24;;;;;;;13.77;6.55;;;11.60;99.90;;;;;;5015222;28;20103;-86
2023/04/10 18:51:49;;;;;;;13.88;7.50;;;10.70;99.90;;;;;;4997555;28;20132;-85
2023/04/10 18:54:15;;;;;;;13.80;7.30;;;10.60;99.90;;;;;;4997741;28;20049;-85
2023/04/10 18:56:40;;;;;;;12.63;6.68;;;10.60;99.90;;;;;;4998332;28;20189;-86
2023/04/10 18:59:06;;;;;;;13.90;6.70;;;10.50;99.90;;;;;;5014531;28;20053;-86
2023/04/10 19:01:32;;;;;;;13.82;7.30;;;10.50;99.90;;;;;;4998349;28;20042;-85
2023/04/10 19:03:58;;;;;;;16.63;8.10;;;11.40;99.90;;;;;;4998239;28;20045;-85
2023/04/10 19:06:25;;;;;;;21.77;9.18;;;11.50;99.90;;;;;;4998044;28;20061;-85
2023/04/10 19:08:51;;;;;;;18.80;7.93;;;10.40;99.90;;;;;;4997845;28;20077;-86
2023/04/10 19:11:17;;;;;;;14.85;7.68;;;10.40;99.90;;;;;;4997084;28;20139;-85
2023/04/10 19:13:43;;;;;;;14.73;7.03;;;10.40;99.90;;;;;;5020488;28;20516;-85
2023/04/10 19:16:13;;;;;;;14.50;7.25;;;10.30;99.90;;;;;;5016370;28;20033;-86
2023/04/10 19:18:41;;;;;;;14.50;7.20;;;10.30;99.90;;;;;;5015836;28;20075;-85
2023/04/10 19:21:07;;;;;;;14.93;7.03;;;10.30;99.90;;;;;;5037036;28;20478;-85
2023/04/10 19:23:33;;;;;;;14.13;7.20;;;10.30;99.90;;;;;;5035795;28;20080;-85
2023/04/10 19:25:59;;;;;;;15.40;7.00;;;10.30;99.90;;;;;;5017707;28;20497;-85
2023/04/10 19:28:25;;;;;;;14.57;7.13;;;11.50;99.90;;;;;;5034584;28;20168;-85
2023/04/10 19:30:51;;;;;;;13.68;7.05;;;10.30;99.90;;;;;;5034946;28;20041;-85
2023/04/10 19:33:18;;;;;;;17.52;7.88;;;10.30;99.90;;;;;;5034280;28;20045;-85
2023/04/10 19:35:44;;;;;;;17.13;8.27;;;10.30;99.90;;;;;;5034374;28;20046;-86
2023/04/10 19:38:10;;;;;;;22.05;10.25;;;10.20;99.90;;;;;;5016800;28;20049;-85
2023/04/10 19:40:36;;;;;;;20.77;10.23;;;10.30;99.90;;;;;;5035097;28;20052;-86
2023/04/10 19:43:02;;;;;;;17.88;10.35;;;10.20;99.90;;;;;;5034450;28;20080;-85
2023/04/10 19:45:28;;;;;;;15.32;9.52;;;10.50;99.90;;;;;;5017199;28;20072;-84